Time;durP1;ratioP1;P1;durP2;ratioP2;P2;SDS_P1;SDS_P2;PMS_P1;PMS_P2;Temp;Humidity;BMP_temperature;BMP_pressure;BME280_temperature;BME280_humidity;BME280_pressure;Samples;Min_cycle;Max_cycle;Signal;HPM_P1;HPM_P2
2023/04/20 00:01:40;;;;;;;13.68;10.00;;;;;;;11.44;92.60;99004.16;5111038;28;20038;-76
2023/04/20 00:04:07;;;;;;;14.85;10.77;;;;;;;11.55;92.80;99004.50;5107282;28;20023;-75
2023/04/20 00:06:33;;;;;;;15.00;9.93;;;;;;;11.46;92.04;99004.59;5095020;28;20492;-75
2023/04/20 00:09:03;;;;;;;15.35;10.15;;;;;;;11.52;92.23;99000.41;5094789;28;20028;-76
2023/04/20 00:11:28;;;;;;;;;;;;;;;11.57;92.40;99000.16;5095601;28;20050;-75
2023/04/20 00:13:55;;;;;;;13.15;10.15;;;;;;;11.64;91.86;98996.75;5100012;28;19931;-75
2023/04/20 00:16:21;;;;;;;18.05;12.45;;;;;;;11.64;92.35;98991.97;5092900;28;20036;-75
2023/04/20 00:18:46;;;;;;;14.95;11.38;;;;;;;11.61;92.07;98989.06;5094147;28;20036;-75
2023/04/20 00:21:12;;;;;;;16.65;11.18;;;;;;;11.61;91.43;98987.09;5094677;28;20477;-75
2023/04/20 00:23:38;;;;;;;14.48;11.45;;;;;;;11.53;91.78;98985.25;5093809;28;20100;-75
2023/04/20 00:26:03;;;;;;;17.20;11.88;;;;;;;11.47;91.49;98981.88;5094430;28;20063;-75
2023/04/20 00:28:30;;;;;;;15.68;11.85;;;;;;;11.35;91.71;98982.72;5112755;28;20055;-75
2023/04/20 00:30:55;;;;;;;11.27;9.73;;;;;;;11.32;91.00;98961.00;5112215;28;20114;-76
2023/04/20 00:33:20;;;;;;;14.65;11.00;;;;;;;11.41;90.74;98983.28;5092865;28;20527;-75
2023/04/20 00:35:46;;;;;;;15.20;11.63;;;;;;;11.33;90.16;98985.03;5100332;28;20032;-75
2023/04/20 00:38:11;;;;;;;14.93;10.90;;;;;;;11.24;89.66;98973.97;5094096;28;20027;-75
2023/04/20 00:40:37;;;;;;;15.93;11.70;;;;;;;11.21;89.40;98983.06;5111458;28;20434;-75
2023/04/20 00:43:13;;;;;;;19.17;12.23;;;;;;;11.09;90.09;98980.28;5093907;28;20031;-75
2023/04/20 00:45:39;;;;;;;15.57;12.75;;;;;;;11.15;90.49;98978.88;5112703;28;20031;-75
2023/04/20 00:48:05;;;;;;;15.40;10.68;;;;;;;11.02;90.32;98983.66;5111219;28;20091;-75
2023/04/20 00:50:32;;;;;;;15.25;11.80;;;;;;;10.97;90.15;98983.88;5112247;28;20126;-75
2023/04/20 00:52:59;;;;;;;15.75;11.50;;;;;;;10.98;90.43;98982.75;5092874;28;20034;-75
2023/04/20 00:55:26;;;;;;;14.98;11.23;;;;;;;10.97;90.08;98983.88;5093482;28;20036;-75
2023/04/20 00:57:51;;;;;;;16.80;12.45;;;;;;;10.84;90.11;98974.69;5093439;28;20073;-75
2023/04/20 01:00:17;;;;;;;15.52;12.00;;;;;;;10.80;90.04;98982.97;5111886;28;20082;-75
2023/04/20 01:02:42;;;;;;;14.25;11.68;;;;;;;10.71;91.20;98976.66;5074656;28;20092;-75
2023/04/20 01:05:09;;;;;;;16.83;13.00;;;;;;;10.49;91.95;98977.91;5091734;28;20024;-75
2023/04/20 01:07:35;;;;;;;17.27;12.45;;;;;;;10.48;92.47;98979.88;5077561;28;20084;-75
2023/04/20 01:10:01;;;;;;;14.23;11.82;;;;;;;10.51;92.70;98978.38;5092439;28;20358;-75
2023/04/20 01:12:26;;;;;;;16.85;12.82;;;;;;;10.47;92.68;98977.44;5107482;28;20044;-75
2023/04/20 01:14:52;;;;;;;17.80;13.75;;;;;;;10.45;92.40;98971.38;5093422;28;20057;-75
2023/04/20 01:17:19;;;;;;;17.88;13.60;;;;;;;10.34;92.77;98980.19;5102310;28;20035;-75
2023/04/20 01:19:45;;;;;;;16.25;12.88;;;;;;;10.44;91.99;98978.09;5093221;28;20038;-75
2023/04/20 01:22:17;;;;;;;17.30;13.52;;;;;;;10.31;92.16;98982.84;5112129;28;20024;-75
2023/04/20 01:24:43;;;;;;;15.00;12.18;;;;;;;10.33;91.69;98974.91;5093560;28;20023;-75
2023/04/20 01:27:09;;;;;;;17.20;12.68;;;;;;;10.46;91.49;98973.81;5110699;28;20099;-75
2023/04/20 01:29:34;;;;;;;19.38;13.40;;;;;;;10.41;91.50;98971.25;5092663;28;20020;-75
2023/04/20 01:32:00;;;;;;;21.23;13.77;;;;;;;10.39;91.00;98979.94;5098953;28;20027;-75
2023/04/20 01:34:25;;;;;;;24.23;13.35;;;;;;;10.20;91.97;98968.50;5092354;28;20055;-75
2023/04/20 01:36:51;;;;;;;22.58;13.15;;;;;;;10.34;91.08;98974.59;5093830;28;20405;-75
2023/04/20 01:39:16;;;;;;;17.90;13.98;;;;;;;10.25;91.61;98979.44;5110192;28;20088;-75
2023/04/20 01:41:42;;;;;;;18.52;13.75;;;;;;;10.29;90.92;98972.00;5078576;28;20034;-76
2023/04/20 01:44:07;;;;;;;18.88;13.68;;;;;;;10.38;90.91;98971.91;5091398;28;20023;-75
2023/04/20 01:46:37;;;;;;;19.35;13.35;;;;;;;10.49;89.44;98975.91;5092000;28;20015;-75
2023/04/20 01:49:02;;;;;;;15.10;12.57;;;;;;;10.57;89.33;98977.00;5091289;28;20075;-75
2023/04/20 01:51:28;;;;;;;18.08;13.80;;;;;;;10.66;88.02;98966.50;5111980;28;20023;-75
2023/04/20 01:53:53;;;;;;;18.67;13.68;;;;;;;10.75;87.06;98965.59;5111600;28;20019;-75
2023/04/20 01:56:19;;;;;;;16.52;12.85;;;;;;;10.76;86.94;98964.41;5112084;28;20031;-75
2023/04/20 01:58:44;;;;;;;19.85;14.00;;;;;;;10.58;88.38;98969.41;5110379;28;20032;-75
2023/04/20 02:01:10;;;;;;;18.95;14.63;;;;;;;10.52;89.56;98971.59;5086238;28;20544;-75
2023/04/20 02:03:35;;;;;;;18.55;13.65;;;;;;;10.23;90.84;98962.22;5091077;28;20019;-75
2023/04/20 02:06:01;;;;;;;16.90;14.25;;;;;;;10.19;91.34;98978.00;5108518;28;20111;-75
2023/04/20 02:08:26;;;;;;;21.20;13.77;;;;;;;10.37;91.08;98970.25;5107437;28;20028;-75
2023/04/20 02:10:51;;;;;;;19.50;14.27;;;;;;;10.27;86.12;98979.13;5092851;28;20019;-75
2023/04/20 02:13:17;;;;;;;17.05;13.38;;;;;;;10.32;86.42;98964.91;5092981;28;20039;-75
2023/04/20 02:15:42;;;;;;;17.75;13.88;;;;;;;10.41;85.67;98965.66;5107243;28;20572;-75
2023/04/20 02:18:08;;;;;;;19.85;14.10;;;;;;;10.47;85.13;98971.84;5100866;28;20035;-75
2023/04/20 02:20:34;;;;;;;17.65;13.13;;;;;;;10.36;84.71;98971.44;5110641;28;20036;-75
2023/04/20 02:22:59;;;;;;;18.17;14.32;;;;;;;10.55;85.24;98964.50;5094469;28;20468;-75
2023/04/20 02:25:25;;;;;;;22.20;14.10;;;;;;;10.62;84.73;98975.97;5115404;28;20027;-75
2023/04/20 02:27:50;;;;;;;17.13;13.70;;;;;;;10.63;84.39;98977.59;5115244;28;20066;-75
2023/04/20 02:30:16;;;;;;;29.70;14.50;;;;;;;10.46;84.04;98978.59;5096644;28;20027;-75
2023/04/20 02:32:42;;;;;;;19.95;14.00;;;;;;;10.55;84.50;98981.28;5096873;28;20446;-75
2023/04/20 02:35:08;;;;;;;20.73;14.80;;;;;;;10.39;83.88;98973.56;5107702;28;20420;-75
2023/04/20 02:37:33;;;;;;;20.70;14.25;;;;;;;10.14;83.91;98970.69;5114456;28;20019;-75
2023/04/20 02:39:59;;;;;;;26.48;14.18;;;;;;;10.15;83.69;98971.50;5113683;28;20426;-75
2023/04/20 02:42:25;;;;;;;19.55;14.65;;;;;;;10.21;83.84;98972.94;5075920;28;20052;-75
2023/04/20 02:44:51;;;;;;;19.55;14.18;;;;;;;10.18;82.99;98973.59;5094343;28;20028;-75
2023/04/20 02:47:17;;;;;;;21.15;14.73;;;;;;;10.26;83.01;98981.06;5110075;28;20080;-75
2023/04/20 02:49:43;;;;;;;16.02;13.27;;;;;;;10.12;83.42;98984.16;5095753;28;20106;-75
2023/04/20 02:52:08;;;;;;;17.50;14.38;;;;;;;10.23;83.96;98974.19;5094825;28;20034;-75
2023/04/20 02:54:34;;;;;;;16.88;13.52;;;;;;;10.34;83.30;98982.97;5114419;28;20090;-75
2023/04/20 02:57:00;;;;;;;16.92;13.65;;;;;;;10.38;84.40;98983.09;5114358;28;20032;-75
2023/04/20 02:59:25;;;;;;;16.08;12.95;;;;;;;10.49;84.03;98989.88;5095129;28;20031;-75
2023/04/20 03:01:51;;;;;;;19.15;14.15;;;;;;;10.53;84.58;98990.84;5098637;28;20031;-75
2023/04/20 03:04:18;;;;;;;15.80;12.23;;;;;;;10.52;83.67;98986.41;5093969;28;20103;-75
2023/04/20 03:06:43;;;;;;;17.23;13.55;;;;;;;10.49;83.36;98984.28;5093861;28;20414;-75
2023/04/20 03:09:09;;;;;;;18.17;12.88;;;;;;;10.53;81.59;98990.03;5104689;28;20031;-75
2023/04/20 03:11:35;;;;;;;16.95;13.13;;;;;;;10.48;80.13;98988.25;5095450;28;20161;-75
2023/04/20 03:14:00;;;;;;;16.10;13.05;;;;;;;10.50;77.89;98991.56;5113811;28;20050;-75
2023/04/20 03:16:26;;;;;;;18.52;13.93;;;;;;;10.43;79.02;98980.09;5099791;28;20031;-75
2023/04/20 03:18:51;;;;;;;21.77;13.93;;;;;;;10.53;80.20;98993.66;5098455;28;20036;-75
2023/04/20 03:21:17;;;;;;;17.58;13.75;;;;;;;10.62;80.05;99001.13;5113664;28;20024;-75
2023/04/20 03:23:42;;;;;;;22.63;14.23;;;;;;;10.53;79.61;98990.03;5113699;28;20031;-75
2023/04/20 03:26:08;;;;;;;19.73;14.23;;;;;;;10.49;80.11;98983.50;5094489;28;20480;-75
2023/04/20 03:28:33;;;;;;;20.55;14.52;;;;;;;10.55;80.31;98992.47;5112511;28;20028;-75
2023/04/20 03:31:00;;;;;;;23.20;16.48;;;;;;;10.63;80.62;98983.19;5097599;28;20483;-75
2023/04/20 03:33:26;;;;;;;24.08;13.52;;;;;;;10.70;80.17;98989.00;5092715;28;20032;-75
2023/04/20 03:35:52;;;;;;;17.27;13.02;;;;;;;10.66;79.34;98985.28;5094048;28;20111;-75
2023/04/20 03:38:17;;;;;;;18.20;12.93;;;;;;;10.64;78.60;98985.63;5103234;28;20103;-75
2023/04/20 03:40:43;;;;;;;19.13;13.68;;;;;;;10.70;78.76;98985.41;5112877;28;20031;-75
2023/04/20 03:43:10;;;;;;;17.02;13.20;;;;;;;10.65;77.85;98978.06;5112476;28;20019;-75
2023/04/20 03:45:35;;;;;;;16.77;12.65;;;;;;;10.72;78.24;98981.06;5093299;28;20055;-75
2023/04/20 03:48:01;;;;;;;20.23;13.20;;;;;;;10.75;78.58;98979.56;5109908;28;20055;-75
2023/04/20 03:50:26;;;;;;;20.02;13.48;;;;;;;10.82;78.09;98979.81;5112584;28;20103;-75
2023/04/20 03:52:52;;;;;;;17.02;13.60;;;;;;;10.75;78.74;98979.56;5094817;28;20578;-75
2023/04/20 03:55:17;;;;;;;21.80;15.32;;;;;;;10.71;78.15;98990.63;5113089;28;20020;-75
2023/04/20 03:57:42;;;;;;;23.80;14.60;;;;;;;10.63;78.56;98989.56;5112803;28;20038;-75
2023/04/20 04:00:09;;;;;;;19.55;14.35;;;;;;;10.59;79.75;98999.00;5112469;28;20023;-75
2023/04/20 04:02:35;;;;;;;38.80;15.88;;;;;;;10.59;79.41;98980.25;5098261;28;20032;-75
2023/04/20 04:05:00;;;;;;;22.55;15.50;;;;;;;10.51;80.73;99003.53;5107448;28;20047;-74
2023/04/20 04:07:26;;;;;;;22.48;16.13;;;;;;;10.48;83.48;99005.03;5091188;28;20039;-75
2023/04/20 04:09:51;;;;;;;22.50;16.92;;;;;;;10.53;84.37;99012.38;5111733;28;20031;-75
2023/04/20 04:12:17;;;;;;;24.67;16.02;;;;;;;10.67;83.53;99006.47;5094518;28;20047;-75
2023/04/20 04:14:42;;;;;;;21.70;16.33;;;;;;;10.50;83.98;99011.13;5106884;28;20032;-75
2023/04/20 04:17:08;;;;;;;27.60;16.13;;;;;;;10.63;83.91;99005.56;5073947;28;20023;-75
2023/04/20 04:19:33;;;;;;;24.10;16.92;;;;;;;10.87;83.15;99004.75;5108666;28;20042;-75
2023/04/20 04:21:59;;;;;;;29.23;21.23;;;;;;;11.00;82.71;99002.78;5112765;28;20028;-75
2023/04/20 04:24:25;;;;;;;26.98;20.38;;;;;;;11.15;82.19;99008.84;5113263;28;20077;-75
2023/04/20 04:26:57;;;;;;;27.70;19.75;;;;;;;11.29;82.31;99008.50;5090765;28;20036;-75
2023/04/20 04:29:24;;;;;;;23.38;18.00;;;;;;;11.42;81.46;99006.50;5089119;28;20027;-75
2023/04/20 04:31:50;;;;;;;21.20;17.08;;;;;;;11.29;81.02;99014.91;5091718;28;20039;-75
2023/04/20 04:34:17;;;;;;;24.23;16.15;;;;;;;11.36;80.16;99017.13;5090296;28;20055;-75
2023/04/20 04:36:43;;;;;;;20.30;15.38;;;;;;;11.55;78.85;99015.69;5091117;28;20028;-75
2023/04/20 04:39:08;;;;;;;23.40;15.35;;;;;;;11.35;78.06;99019.13;5092967;28;20501;-75
2023/04/20 04:41:34;;;;;;;17.73;15.00;;;;;;;11.58;78.77;99021.41;5091716;28;20047;-75
2023/04/20 04:44:00;;;;;;;17.52;14.68;;;;;;;11.67;78.23;99010.06;5073726;28;20488;-75
2023/04/20 04:46:26;;;;;;;21.52;13.63;;;;;;;11.84;77.46;99017.38;5072641;28;20027;-75
2023/04/20 04:48:52;;;;;;;19.83;13.35;;;;;;;11.62;77.54;99008.34;5108496;28;20039;-75
2023/04/20 04:51:17;;;;;;;17.83;14.45;;;;;;;11.80;76.82;99013.66;5108613;28;20114;-76
2023/04/20 04:53:45;;;;;;;18.63;13.15;;;;;;;11.93;77.28;99020.03;5092528;28;20027;-76
2023/04/20 04:56:12;;;;;;;20.63;12.95;;;;;;;11.80;76.69;99006.06;5093785;28;20027;-77
2023/04/20 04:58:38;;;;;;;14.82;12.50;;;;;;;11.85;77.65;99021.81;5091089;28;20024;-74
2023/04/20 05:01:03;;;;;;;18.35;13.23;;;;;;;11.78;77.86;99014.03;5093909;28;20107;-70
2023/04/20 05:03:29;;;;;;;18.42;14.77;;;;;;;11.74;77.63;99017.88;5094587;28;20023;-74
2023/04/20 05:05:55;;;;;;;27.20;16.20;;;;;;;11.54;77.37;99017.69;5081434;28;20024;-75
2023/04/20 05:08:23;;;;;;;31.92;18.80;;;;;;;11.55;78.09;99027.72;5094656;28;20028;-75
2023/04/20 05:10:48;;;;;;;53.03;25.48;;;;;;;11.55;78.65;99018.50;5094234;28;20082;-77
2023/04/20 05:13:14;;;;;;;41.83;23.35;;;;;;;11.61;79.72;99023.50;5087795;28;20036;-72
2023/04/20 05:15:40;;;;;;;47.22;26.48;;;;;;;11.55;80.33;99021.31;5076534;27;20119;-76
2023/04/20 05:18:05;;;;;;;44.13;25.80;;;;;;;11.37;82.45;99021.53;5081779;28;20082;-76
2023/04/20 05:20:31;;;;;;;47.90;29.80;;;;;;;11.36;84.15;99020.75;5098409;28;20482;-75
2023/04/20 05:22:56;;;;;;;30.00;19.80;;;;;;;11.31;84.17;99029.38;5084073;28;20421;-73
2023/04/20 05:25:22;;;;;;;38.22;21.23;;;;;;;11.38;85.00;99031.56;5107506;28;20106;-72
2023/04/20 05:27:47;;;;;;;28.92;18.52;;;;;;;11.27;84.69;99022.00;5105020;28;20501;-77
2023/04/20 05:30:13;;;;;;;25.15;17.13;;;;;;;11.18;84.85;99031.38;5099237;28;20028;-78
2023/04/20 05:32:39;;;;;;;25.30;16.33;;;;;;;11.00;84.91;99018.75;5104727;28;20068;-78
2023/04/20 05:35:04;;;;;;;31.25;19.73;;;;;;;11.13;87.16;99014.00;5100324;28;20058;-78
2023/04/20 05:37:31;;;;;;;23.23;16.35;;;;;;;11.23;86.85;99017.13;5100558;28;20108;-78
2023/04/20 05:39:56;;;;;;;22.60;16.15;;;;;;;11.14;84.61;99019.22;5082068;28;20096;-78
2023/04/20 05:42:22;;;;;;;20.00;14.35;;;;;;;11.12;84.63;99015.16;5086540;28;20028;-78
2023/04/20 05:44:47;;;;;;;23.05;16.35;;;;;;;11.18;86.15;99014.56;5102043;28;20471;-75
2023/04/20 05:47:13;;;;;;;25.70;16.25;;;;;;;11.29;87.22;99019.72;5085450;28;20039;-78
2023/04/20 05:49:39;;;;;;;22.17;16.35;;;;;;;11.33;86.91;99023.44;5100482;28;20028;-78
2023/04/20 05:52:05;;;;;;;19.75;15.13;;;;;;;11.35;87.63;99019.13;5092646;28;20059;-76
2023/04/20 05:54:30;;;;;;;26.17;16.27;;;;;;;11.31;86.46;99015.38;5104330;28;20059;-75
2023/04/20 05:56:57;;;;;;;32.25;24.45;;;;;;;11.48;87.59;99021.91;5086819;28;20146;-73
2023/04/20 05:59:24;;;;;;;23.58;16.20;;;;;;;11.68;85.22;99022.09;5100631;27;20020;-75
2023/04/20 06:01:49;;;;;;;18.75;14.00;;;;;;;11.76;83.68;99024.75;5109022;28;20494;-76
2023/04/20 06:04:15;;;;;;;18.05;13.05;;;;;;;11.97;81.01;99026.56;5114805;28;20088;-74
2023/04/20 06:06:40;;;;;;;15.35;13.40;;;;;;;12.29;79.63;99025.88;5083630;28;20071;-74
2023/04/20 06:09:06;;;;;;;16.10;12.13;;;;;;;12.63;78.66;99044.06;5107570;27;20028;-72
2023/04/20 06:11:31;;;;;;;20.52;15.13;;;;;;;12.50;78.11;99040.50;5104243;28;20055;-72
2023/04/20 06:13:57;;;;;;;20.23;13.23;;;;;;;12.56;77.95;99020.63;5082363;28;20060;-78
2023/04/20 06:16:22;;;;;;;14.00;12.50;;;;;;;12.62;75.59;99027.59;5092964;28;20034;-75
2023/04/20 06:18:48;;;;;;;21.95;13.23;;;;;;;12.75;74.92;99036.75;5106471;28;20054;-73
2023/04/20 06:21:14;;;;;;;17.15;14.45;;;;;;;12.66;75.74;99047.31;5101544;27;20414;-73
2023/04/20 06:23:45;;;;;;;21.98;14.85;;;;;;;12.86;76.36;99051.06;5101225;28;20110;-73
2023/04/20 06:26:11;;;;;;;18.65;14.40;;;;;;;13.29;74.18;99040.94;5095976;28;20032;-71
2023/04/20 06:28:37;;;;;;;15.07;12.80;;;;;;;13.42;75.05;99046.44;5086536;28;20486;-73
2023/04/20 06:31:03;;;;;;;19.40;12.85;;;;;;;13.46;71.41;99053.81;5093625;27;20035;-72
2023/04/20 06:33:29;;;;;;;16.33;13.80;;;;;;;13.09;71.58;99045.63;5100408;27;20020;-73
2023/04/20 06:35:55;;;;;;;19.85;14.13;;;;;;;13.40;72.01;99043.97;5093088;28;20024;-71
2023/04/20 06:38:21;;;;;;;17.83;13.65;;;;;;;13.22;71.21;99043.53;5111762;28;20080;-72
2023/04/20 06:40:47;;;;;;;17.83;12.90;;;;;;;13.23;71.23;99050.78;5100902;28;20039;-71
2023/04/20 06:43:12;;;;;;;31.20;15.63;;;;;;;13.23;72.12;99050.00;5081468;28;20020;-72
2023/04/20 06:45:39;;;;;;;20.70;14.05;;;;;;;13.11;70.98;99051.72;5082261;28;20028;-71
2023/04/20 06:48:05;;;;;;;20.63;15.15;;;;;;;12.98;71.33;99045.34;5103944;28;20744;-72
2023/04/20 06:50:30;;;;;;;21.20;15.55;;;;;;;12.84;71.50;99048.59;5092066;27;20138;-71
2023/04/20 06:52:56;;;;;;;19.83;15.32;;;;;;;13.00;70.91;99043.00;5084848;28;20131;-72
2023/04/20 06:55:21;;;;;;;20.63;15.18;;;;;;;12.99;72.34;99049.78;5099158;27;20047;-71
2023/04/20 06:57:47;;;;;;;18.60;13.38;;;;;;;13.09;69.95;99050.44;5099099;27;20058;-71
2023/04/20 07:00:13;;;;;;;16.85;14.02;;;;;;;13.15;70.54;99057.41;5092171;27;20027;-73
2023/04/20 07:02:57;;;;;;;22.40;13.88;;;;;;;13.20;70.37;99048.72;5098777;28;20107;-70
2023/04/20 07:05:22;;;;;;;22.98;13.65;;;;;;;13.09;70.64;99042.00;5084029;28;20114;-70
2023/04/20 07:07:48;;;;;;;20.90;13.70;;;;;;;13.06;69.10;99038.75;5089089;27;20616;-73
2023/04/20 07:10:14;;;;;;;21.58;13.93;;;;;;;13.16;69.04;99045.81;5106873;28;20035;-71
2023/04/20 07:12:41;;;;;;;17.67;13.95;;;;;;;13.39;69.71;99044.34;5111136;28;20055;-73
2023/04/20 07:15:08;;;;;;;21.55;12.30;;;;;;;13.60;68.73;99039.25;5098786;28;20043;-71
2023/04/20 07:17:34;;;;;;;16.25;12.43;;;;;;;13.57;67.55;99036.34;5096124;27;20383;-70
2023/04/20 07:20:09;;;;;;;17.40;11.80;;;;;;;13.30;66.86;99034.13;5094173;27;20024;-75
2023/04/20 07:22:38;;;;;;;16.63;13.15;;;;;;;13.58;68.80;99032.41;5112377;28;20034;-70
2023/04/20 07:25:06;;;;;;;19.63;12.63;;;;;;;13.57;66.70;99028.75;5112516;28;20020;-72
2023/04/20 07:27:38;;;;;;;21.25;15.13;;;;;;;13.69;68.94;99032.63;5112756;28;20024;-72
2023/04/20 07:30:05;;;;;;;18.70;12.65;;;;;;;13.68;68.09;99026.19;5102182;27;20084;-72
2023/04/20 07:32:34;;;;;;;19.58;14.35;;;;;;;13.58;68.28;99027.56;5091004;28;20019;-72
2023/04/20 07:35:00;;;;;;;17.27;12.43;;;;;;;13.60;69.25;99022.41;5092487;28;20020;-72
2023/04/20 07:37:26;;;;;;;15.50;12.85;;;;;;;13.73;69.19;99025.06;5092984;28;20024;-73
2023/04/20 07:39:52;;;;;;;18.30;13.25;;;;;;;13.71;69.25;99016.19;5102335;28;20114;-73
2023/04/20 07:42:18;;;;;;;15.70;12.57;;;;;;;13.64;68.17;99016.84;5112909;28;20066;-72
2023/04/20 07:44:44;;;;;;;27.17;13.70;;;;;;;13.49;69.25;99012.91;5113072;28;20060;-72
2023/04/20 07:47:09;;;;;;;18.20;14.43;;;;;;;13.74;69.47;99018.28;5101299;28;20065;-72
2023/04/20 07:49:36;;;;;;;15.63;13.23;;;;;;;13.94;68.44;99007.06;5092126;28;20027;-72
2023/04/20 07:52:04;;;;;;;16.25;13.40;;;;;;;14.39;68.44;99021.63;5112865;28;20020;-72
2023/04/20 07:54:31;;;;;;;21.38;14.85;;;;;;;14.60;64.49;99018.41;5094384;28;20027;-72
2023/04/20 07:56:56;;;;;;;16.20;13.18;;;;;;;14.65;65.15;99017.28;5094759;28;20059;-72
2023/04/20 07:59:22;;;;;;;25.02;13.65;;;;;;;14.87;63.82;99012.91;5093924;28;20521;-72
2023/04/20 08:01:47;;;;;;;17.95;13.88;;;;;;;15.14;63.26;99018.56;5094190;28;20028;-72
2023/04/20 08:04:13;;;;;;;20.05;13.75;;;;;;;15.16;63.24;99002.94;5112381;28;20023;-72
2023/04/20 08:06:38;;;;;;;17.05;11.88;;;;;;;15.43;59.99;99011.38;5112800;28;20028;-72
2023/04/20 08:09:04;;;;;;;23.55;12.38;;;;;;;15.60;59.61;99008.41;5105549;28;20053;-72
2023/04/20 08:11:29;;;;;;;19.33;11.65;;;;;;;15.88;58.86;99010.81;5105334;28;20523;-72
2023/04/20 08:13:55;;;;;;;16.65;11.68;;;;;;;15.78;59.28;99006.63;5094287;28;20144;-72
2023/04/20 08:16:20;;;;;;;14.52;11.20;;;;;;;16.02;60.68;99009.41;5112189;28;20019;-72
2023/04/20 08:18:45;;;;;;;19.92;12.00;;;;;;;16.13;57.48;99010.34;5093705;28;20489;-72
2023/04/20 08:21:11;;;;;;;15.95;11.60;;;;;;;16.16;56.76;99003.94;5093213;28;20020;-71
2023/04/20 08:23:36;;;;;;;17.75;11.95;;;;;;;16.41;55.74;99000.59;5112136;28;20027;-71
2023/04/20 08:26:03;;;;;;;16.70;12.25;;;;;;;16.41;55.90;99003.41;5093017;28;20087;-71
2023/04/20 08:28:28;;;;;;;17.83;12.90;;;;;;;16.89;56.79;99002.66;5108641;28;20023;-71
2023/04/20 08:30:54;;;;;;;16.50;12.38;;;;;;;16.48;54.13;98985.75;5093886;28;20081;-72
2023/04/20 08:33:22;;;;;;;27.60;13.45;;;;;;;16.68;54.34;99000.47;5110674;28;20031;-71
2023/04/20 08:35:50;;;;;;;15.77;10.82;;;;;;;16.83;52.41;98996.59;5111312;28;20046;-71
2023/04/20 08:38:16;;;;;;;16.77;11.60;;;;;;;16.39;54.21;98997.34;5093571;28;20486;-72
2023/04/20 08:40:42;;;;;;;15.93;12.77;;;;;;;16.29;56.84;98990.38;5110927;28;20058;-72
2023/04/20 08:43:07;;;;;;;22.05;13.70;;;;;;;16.29;56.89;98993.22;5108098;28;20070;-72
2023/04/20 08:45:33;;;;;;;18.45;13.43;;;;;;;16.66;56.08;98992.41;5111588;28;20027;-72
2023/04/20 08:48:04;;;;;;;21.70;11.80;;;;;;;16.36;52.25;98996.09;5093060;28;20055;-72
2023/04/20 08:50:30;;;;;;;18.70;13.27;;;;;;;16.43;52.71;98998.19;5111535;28;20031;-72
2023/04/20 08:52:56;;;;;;;16.73;11.98;;;;;;;16.67;53.34;98996.84;5111730;28;20498;-72
2023/04/20 08:55:21;;;;;;;13.35;11.52;;;;;;;16.78;51.49;98996.13;5110626;28;20034;-72
2023/04/20 08:57:48;;;;;;;15.65;12.30;;;;;;;16.90;54.33;98998.66;5093124;28;20107;-73
2023/04/20 09:00:14;;;;;;;15.35;12.82;;;;;;;17.08;52.45;98989.56;5092447;28;20035;-74
2023/04/20 09:02:57;;;;;;;16.00;12.50;;;;;;;17.36;53.75;98988.13;5106085;28;20061;-77
2023/04/20 09:05:30;;;;;;;15.63;11.25;;;;;;;16.93;52.08;98975.28;5090171;28;20024;-73
2023/04/20 09:07:58;;;;;;;16.65;11.32;;;;;;;16.49;53.36;98978.88;5099560;27;20027;-72
2023/04/20 09:10:25;;;;;;;15.68;11.15;;;;;;;16.81;52.53;98990.50;5103277;28;20049;-72
2023/04/20 09:12:51;;;;;;;13.23;10.43;;;;;;;17.17;51.95;98989.22;5106328;28;20419;-72
2023/04/20 09:15:28;;;;;;;17.13;11.55;;;;;;;17.43;52.27;98987.38;5089847;28;20024;-72
2023/04/20 09:17:53;;;;;;;10.75;8.60;;;;;;;17.08;49.43;98990.38;5103021;28;20032;-73
2023/04/20 09:20:32;;;;;;;15.25;8.98;;;;;;;16.51;50.66;98991.44;5109387;28;20097;-72
2023/04/20 09:23:10;;;;;;;11.73;10.52;;;;;;;16.18;52.91;98987.44;5086548;28;20119;-73
2023/04/20 09:25:36;;;;;;;18.05;11.43;;;;;;;16.79;54.01;98981.59;5087045;28;20027;-73
2023/04/20 09:28:02;;;;;;;12.10;10.23;;;;;;;17.25;50.70;98976.75;5109804;28;20485;-73
2023/04/20 09:30:56;;;;;;;12.57;9.70;;;;;;;17.64;52.16;98966.91;5111092;28;20028;-73
2023/04/20 09:33:28;;;;;;;13.15;10.15;;;;;;;17.25;50.94;98983.25;5078253;28;20530;-73
2023/04/20 09:36:04;;;;;;;14.20;11.20;;;;;;;17.30;50.14;98978.41;5100166;28;20110;-73
2023/04/20 09:38:30;;;;;;;12.98;10.25;;;;;;;17.59;48.37;98972.94;5098238;28;20035;-73
2023/04/20 09:41:00;;;;;;;18.15;10.90;;;;;;;17.25;50.26;98968.28;5083128;28;20032;-73
2023/04/20 09:43:28;;;;;;;14.57;11.55;;;;;;;17.36;51.33;98974.00;5108501;28;20027;-73
2023/04/20 09:45:55;;;;;;;15.35;10.80;;;;;;;17.15;49.82;98967.00;5091880;28;20041;-73
2023/04/20 09:48:21;;;;;;;13.77;9.70;;;;;;;16.80;49.23;98959.84;5094534;28;20055;-74
2023/04/20 09:50:47;;;;;;;11.05;9.68;;;;;;;16.84;50.04;98960.66;5085376;28;20039;-75
2023/04/20 09:53:24;;;;;;;14.13;9.52;;;;;;;16.62;50.90;98962.50;5087150;28;20108;-76
2023/04/20 09:55:52;;;;;;;14.38;10.20;;;;;;;16.50;51.07;98958.75;5095187;28;20027;-73
2023/04/20 09:58:19;;;;;;;11.77;9.98;;;;;;;16.39;52.63;98955.00;5091613;28;20300;-77
2023/04/20 10:00:45;;;;;;;12.00;9.23;;;;;;;16.21;49.83;98961.25;5092843;28;20059;-78
2023/04/20 10:03:11;;;;;;;12.15;9.25;;;;;;;16.18;50.40;98953.56;5106206;28;20149;-74
2023/04/20 10:05:38;;;;;;;10.77;9.25;;;;;;;16.49;50.78;98953.50;5078845;28;20439;-74
2023/04/20 10:08:05;;;;;;;15.60;9.45;;;;;;;16.95;49.34;98938.97;5103975;28;20076;-73
2023/04/20 10:10:41;;;;;;;10.40;9.07;;;;;;;17.08;46.46;98950.00;5101656;28;20111;-71
2023/04/20 10:13:06;;;;;;;8.95;7.47;;;;;;;17.02;46.52;98943.91;5101575;28;20052;-71
2023/04/20 10:15:39;;;;;;;12.00;7.90;;;;;;;17.31;46.03;98946.91;5104190;28;20047;-72
2023/04/20 10:18:19;;;;;;;8.15;7.00;;;;;;;17.70;45.70;98934.22;5088776;28;20118;-72
2023/04/20 10:20:45;;;;;;;9.20;8.00;;;;;;;17.96;45.98;98921.81;5101792;28;20043;-72
2023/04/20 10:23:13;;;;;;;12.13;7.90;;;;;;;17.74;44.14;98918.09;5090047;28;20068;-75
2023/04/20 10:25:39;;;;;;;8.98;6.70;;;;;;;17.91;43.14;98930.66;5075913;28;20028;-76
2023/04/20 10:28:08;;;;;;;9.13;6.47;;;;;;;18.18;43.67;98930.41;5097691;28;20038;-75
2023/04/20 10:30:35;;;;;;;10.47;7.23;;;;;;;18.19;42.31;98920.69;5076526;28;20028;-76
2023/04/20 10:33:08;;;;;;;15.98;7.32;;;;;;;18.22;45.55;98927.56;5093398;28;20024;-75
2023/04/20 10:35:40;;;;;;;7.60;6.80;;;;;;;18.46;41.72;98933.66;5094717;28;20024;-75
2023/04/20 10:38:06;;;;;;;9.88;7.32;;;;;;;18.18;41.94;98932.41;5080674;28;20035;-76
2023/04/20 10:40:31;;;;;;;9.93;7.68;;;;;;;18.25;40.96;98935.25;5094095;28;20016;-75
2023/04/20 10:42:57;;;;;;;9.88;6.90;;;;;;;18.86;40.13;98925.22;5098087;28;20098;-76
2023/04/20 10:45:39;;;;;;;8.32;7.43;;;;;;;18.84;42.85;98928.47;5083888;28;20016;-75
2023/04/20 10:48:08;;;;;;;10.55;8.73;;;;;;;18.96;42.64;98926.44;5098432;28;20036;-75
2023/04/20 10:50:34;;;;;;;12.48;7.43;;;;;;;18.59;40.11;98925.59;5102228;28;20028;-75
2023/04/20 10:53:00;;;;;;;11.65;8.50;;;;;;;19.19;42.06;98926.84;5101440;28;20031;-75
2023/04/20 10:55:25;;;;;;;10.02;7.53;;;;;;;18.83;39.75;98934.53;5093064;28;20479;-75
2023/04/20 10:57:52;;;;;;;9.35;7.13;;;;;;;18.95;39.43;98942.63;5093132;28;20107;-75
2023/04/20 11:00:23;;;;;;;8.63;7.75;;;;;;;19.01;41.42;98940.22;5081567;28;20023;-75
2023/04/20 11:02:51;;;;;;;11.95;7.80;;;;;;;18.55;40.16;98925.59;5093536;28;20404;-75
2023/04/20 11:05:21;;;;;;;9.18;7.85;;;;;;;19.02;41.93;98919.16;5095610;28;20090;-74
2023/04/20 11:07:53;;;;;;;10.32;8.23;;;;;;;19.22;41.19;98917.53;5077585;28;20026;-75
2023/04/20 11:10:21;;;;;;;10.23;8.13;;;;;;;19.26;41.74;98916.69;5078741;28;20024;-75
2023/04/20 11:12:47;;;;;;;11.68;7.80;;;;;;;18.94;41.83;98916.31;5099700;28;20044;-75
2023/04/20 11:15:12;;;;;;;8.18;6.68;;;;;;;18.43;41.12;98923.16;5100711;28;20442;-74
2023/04/20 11:17:38;;;;;;;16.08;7.63;;;;;;;18.86;40.15;98920.38;5095092;28;20081;-74